Time;durP1;ratioP1;P1;durP2;ratioP2;P2;SDS_P1;SDS_P2;PMS_P1;PMS_P2;Temp;Humidity;BMP_temperature;BMP_pressure;BME280_temperature;BME280_humidity;BME280_pressure;Samples;Min_cycle;Max_cycle;Signal;HPM_P1;HPM_P2
2022/07/09 00:02:26;;;;;;;5.18;0.80;;;11.50;99.90;;;;;;5007549;28;20663;-65
2022/07/09 00:04:53;;;;;;;1.75;1.00;;;11.60;99.90;;;;;;5005772;28;20053;-64
2022/07/09 00:07:21;;;;;;;3.75;1.00;;;11.60;99.90;;;;;;4989772;28;20073;-64
2022/07/09 00:09:48;;;;;;;1.80;1.10;;;11.70;99.90;;;;;;4996790;28;20108;-66
2022/07/09 00:12:15;;;;;;;2.42;1.30;;;11.70;99.90;;;;;;5005591;28;20022;-67
2022/07/09 00:14:42;;;;;;;2.20;1.27;;;11.90;99.90;;;;;;4998353;28;20023;-64
2022/07/09 00:17:10;;;;;;;2.72;0.80;;;11.90;99.90;;;;;;4986688;28;20655;-65
2022/07/09 00:19:37;;;;;;;1.75;1.00;;;11.90;99.80;;;;;;4987470;28;20035;-64
2022/07/09 00:22:05;;;;;;;1.90;1.20;;;12.00;99.30;;;;;;4986153;28;20109;-65
2022/07/09 00:24:33;;;;;;;2.15;1.00;;;12.00;99.50;;;;;;4987483;28;20030;-63
2022/07/09 00:27:00;;;;;;;1.20;0.90;;;12.00;99.30;;;;;;4986547;28;20378;-64
2022/07/09 00:29:27;;;;;;;3.40;1.60;;;12.10;99.30;;;;;;4986959;28;20058;-64
2022/07/09 00:31:55;;;;;;;2.25;1.23;;;12.10;99.20;;;;;;4986763;28;20154;-66
2022/07/09 00:34:22;;;;;;;3.22;1.85;;;12.20;99.10;;;;;;4986669;28;20033;-68
2022/07/09 00:36:49;;;;;;;2.63;0.90;;;12.30;99.00;;;;;;4987159;28;20080;-63
2022/07/09 00:39:16;;;;;;;4.65;1.02;;;12.40;98.70;;;;;;4985932;28;20023;-64
2022/07/09 00:41:44;;;;;;;5.18;1.02;;;12.30;98.90;;;;;;4986765;28;20037;-68
2022/07/09 00:44:11;;;;;;;1.85;0.70;;;12.40;98.80;;;;;;4986595;28;20434;-66
2022/07/09 00:46:38;;;;;;;1.10;0.80;;;12.50;98.60;;;;;;4987373;28;20109;-66
2022/07/09 00:49:06;;;;;;;1.92;0.85;;;12.50;98.50;;;;;;4986269;28;20029;-67
2022/07/09 00:51:33;;;;;;;4.38;1.15;;;12.60;98.60;;;;;;4986823;28;20393;-64
2022/07/09 00:54:02;;;;;;;2.47;0.80;;;12.60;98.20;;;;;;4986121;28;20026;-64
2022/07/09 00:56:32;;;;;;;2.40;1.05;;;12.70;98.10;;;;;;4986691;28;20528;-64
2022/07/09 00:59:00;;;;;;;2.30;1.10;;;12.80;98.30;;;;;;4986527;28;20042;-67
2022/07/09 01:01:28;;;;;;;2.75;0.70;;;12.90;97.80;;;;;;4987180;28;20417;-64
2022/07/09 01:03:56;;;;;;;4.35;2.05;;;13.00;97.60;;;;;;4986965;28;20503;-66
2022/07/09 01:06:23;;;;;;;1.75;1.55;;;13.10;97.20;;;;;;4986210;28;20026;-67
2022/07/09 01:08:50;;;;;;;3.70;1.70;;;13.10;97.00;;;;;;4986438;28;20882;-65
2022/07/09 01:11:17;;;;;;;3.20;1.15;;;13.20;97.00;;;;;;4984710;28;20029;-65
2022/07/09 01:13:45;;;;;;;3.22;1.00;;;13.30;96.70;;;;;;4985792;28;20033;-65
2022/07/09 01:16:16;;;;;;;1.70;1.00;;;13.40;96.50;;;;;;4985141;28;20085;-65
2022/07/09 01:18:47;;;;;;;2.15;1.02;;;13.50;96.90;;;;;;4985915;28;20022;-67
2022/07/09 01:21:15;;;;;;;2.25;1.48;;;13.60;96.30;;;;;;4985107;28;20022;-65
2022/07/09 01:23:43;;;;;;;3.22;0.85;;;13.70;96.30;;;;;;4986327;28;20427;-64
2022/07/09 01:26:10;;;;;;;2.53;1.02;;;13.70;96.40;;;;;;4985878;28;20379;-70
2022/07/09 01:28:37;;;;;;;2.13;1.02;;;13.80;96.10;;;;;;4986055;28;20101;-64
2022/07/09 01:31:05;;;;;;;2.25;1.00;;;13.90;96.00;;;;;;4985731;28;20025;-67
2022/07/09 01:33:33;;;;;;;1.80;1.00;;;14.00;95.40;;;;;;4986604;28;20052;-68
2022/07/09 01:36:00;;;;;;;2.53;1.00;;;14.10;95.10;;;;;;4986341;28;20019;-67
2022/07/09 01:38:27;;;;;;;1.23;0.70;;;14.20;95.00;;;;;;4985715;28;20018;-65
2022/07/09 01:40:55;;;;;;;1.25;0.90;;;14.30;95.10;;;;;;4986007;28;20038;-65
2022/07/09 01:43:22;;;;;;;1.83;0.95;;;14.50;95.20;;;;;;4984986;28;20032;-64
2022/07/09 01:45:49;;;;;;;2.08;0.90;;;14.60;95.30;;;;;;4986220;28;20034;-63
2022/07/09 01:48:17;;;;;;;1.13;0.60;;;14.70;94.80;;;;;;4985384;28;20404;-65
2022/07/09 01:50:44;;;;;;;1.65;0.88;;;14.90;94.50;;;;;;4985521;28;20098;-67
2022/07/09 01:53:11;;;;;;;1.83;0.88;;;14.90;94.10;;;;;;4985291;28;20018;-65
2022/07/09 01:55:39;;;;;;;1.90;0.70;;;15.00;94.50;;;;;;4985500;28;20045;-67
2022/07/09 01:58:06;;;;;;;3.00;1.10;;;15.20;94.40;;;;;;4986011;28;20037;-66
2022/07/09 02:00:33;;;;;;;1.35;0.80;;;15.30;94.10;;;;;;4985553;28;20034;-64
2022/07/09 02:03:03;;;;;;;1.67;0.80;;;15.50;93.70;;;;;;4985456;28;20054;-66
2022/07/09 02:05:31;;;;;;;2.63;0.80;;;15.60;92.80;;;;;;4984882;28;20033;-63
2022/07/09 02:07:58;;;;;;;1.90;0.60;;;15.80;92.80;;;;;;4985360;28;20790;-64
2022/07/09 02:10:25;;;;;;;1.75;0.95;;;15.90;92.40;;;;;;4984600;28;20464;-64
2022/07/09 02:12:53;;;;;;;0.75;0.50;;;16.00;92.30;;;;;;4985541;28;20033;-63
2022/07/09 02:15:21;;;;;;;2.25;0.60;;;16.10;91.70;;;;;;4984887;28;20034;-67
2022/07/09 02:17:49;;;;;;;2.53;0.70;;;16.10;91.40;;;;;;4985249;28;20025;-63
2022/07/09 02:20:16;;;;;;;1.85;0.80;;;16.10;91.50;;;;;;4984441;28;20471;-67
2022/07/09 02:22:43;;;;;;;1.13;0.60;;;16.10;91.50;;;;;;4985060;28;20448;-64
2022/07/09 02:25:10;;;;;;;1.90;0.70;;;16.20;91.30;;;;;;4985472;28;20053;-64
2022/07/09 02:27:38;;;;;;;2.10;0.68;;;16.30;91.30;;;;;;4985191;28;20117;-64
2022/07/09 02:30:05;;;;;;;0.60;0.60;;;16.40;90.90;;;;;;4985468;28;20038;-65
2022/07/09 02:32:33;;;;;;;1.67;0.68;;;16.40;91.60;;;;;;5016134;28;20031;-63
2022/07/09 02:35:00;;;;;;;1.10;0.93;;;16.50;90.50;;;;;;4984790;28;20034;-63
2022/07/09 02:37:27;;;;;;;2.03;0.55;;;16.60;90.70;;;;;;4984515;28;20061;-66
2022/07/09 02:39:55;;;;;;;1.52;0.60;;;16.90;90.10;;;;;;4985461;28;20061;-64
2022/07/09 02:42:22;;;;;;;3.28;0.80;;;17.20;89.20;;;;;;4985081;28;20095;-66
2022/07/09 02:44:49;;;;;;;0.73;0.60;;;17.30;87.60;;;;;;4985028;28;20027;-68
2022/07/09 02:47:17;;;;;;;2.75;0.70;;;17.40;88.20;;;;;;4984743;28;20038;-64
2022/07/09 02:49:44;;;;;;;1.85;1.00;;;17.60;87.70;;;;;;4985215;28;20387;-67
2022/07/09 02:52:11;;;;;;;1.75;0.60;;;17.90;87.20;;;;;;4985380;28;20029;-66
2022/07/09 02:54:38;;;;;;;1.42;0.70;;;18.00;85.90;;;;;;4984700;28;20518;-64
2022/07/09 02:57:08;;;;;;;0.90;0.60;;;18.20;84.70;;;;;;4984898;28;20488;-67
2022/07/09 02:59:35;;;;;;;1.35;0.70;;;18.50;84.60;;;;;;5015599;28;20090;-63
2022/07/09 03:02:02;;;;;;;1.50;0.60;;;18.80;82.90;;;;;;4985337;28;20466;-67
2022/07/09 03:04:30;;;;;;;0.88;0.60;;;19.00;82.80;;;;;;4984892;28;20029;-65
2022/07/09 03:06:57;;;;;;;0.55;0.55;;;19.10;81.90;;;;;;4985186;28;20467;-64
2022/07/09 03:09:24;;;;;;;1.50;0.68;;;18.90;81.50;;;;;;4984344;28;20114;-64
2022/07/09 03:11:51;;;;;;;1.42;0.70;;;19.10;82.10;;;;;;4984588;28;20096;-68
2022/07/09 03:14:18;;;;;;;2.05;0.60;;;19.40;81.10;;;;;;4984886;28;20022;-67
2022/07/09 03:16:46;;;;;;;1.05;0.57;;;19.70;79.70;;;;;;4984819;28;20022;-65
2022/07/09 03:19:13;;;;;;;1.55;0.70;;;19.90;79.20;;;;;;4985204;28;20445;-66
2022/07/09 03:21:41;;;;;;;1.58;0.60;;;20.10;79.20;;;;;;4984292;28;20088;-69
2022/07/09 03:24:09;;;;;;;1.40;0.70;;;20.60;77.80;;;;;;4985056;28;20373;-66
2022/07/09 03:26:37;;;;;;;0.73;0.57;;;20.80;76.50;;;;;;4984727;28;20491;-68
2022/07/09 03:29:04;;;;;;;1.02;0.60;;;20.80;78.00;;;;;;4985438;28;20027;-66
2022/07/09 03:31:31;;;;;;;1.27;0.50;;;21.10;76.80;;;;;;4984334;28;20031;-64
2022/07/09 03:33:59;;;;;;;1.02;0.60;;;21.10;75.30;;;;;;5015677;28;20125;-66
2022/07/09 03:36:26;;;;;;;0.55;0.50;;;21.10;75.90;;;;;;4984154;28;20065;-64
2022/07/09 03:38:53;;;;;;;2.08;0.60;;;21.20;74.50;;;;;;4984748;28;20030;-64
2022/07/09 03:41:20;;;;;;;0.75;0.52;;;21.30;74.20;;;;;;4984947;28;20109;-69
2022/07/09 03:43:48;;;;;;;1.02;0.40;;;21.80;74.10;;;;;;4984722;28;20037;-65
2022/07/09 03:46:15;;;;;;;0.65;0.57;;;22.30;72.50;;;;;;4987789;28;20034;-71
2022/07/09 03:48:43;;;;;;;1.27;0.70;;;22.80;71.90;;;;;;4987292;28;20019;-64
2022/07/09 03:51:10;;;;;;;1.95;0.93;;;23.00;70.90;;;;;;4988562;28;20030;-64
2022/07/09 03:53:37;;;;;;;2.95;0.70;;;23.00;69.00;;;;;;4988273;28;20026;-63
2022/07/09 03:56:05;;;;;;;1.13;0.60;;;23.20;68.80;;;;;;5020764;28;20050;-72
2022/07/09 03:58:32;;;;;;;1.98;0.68;;;23.10;68.60;;;;;;4988489;28;20033;-66
2022/07/09 04:01:00;;;;;;;1.15;0.50;;;23.00;68.50;;;;;;4988263;28;20498;-67
2022/07/09 04:03:27;;;;;;;2.38;0.47;;;23.00;69.40;;;;;;4988580;28;20068;-69
2022/07/09 04:05:54;;;;;;;0.85;0.40;;;23.20;68.40;;;;;;4987991;28;20037;-66
2022/07/09 04:08:22;;;;;;;1.10;0.40;;;23.20;68.40;;;;;;4987990;28;20037;-72
2022/07/09 04:10:49;;;;;;;1.05;0.68;;;23.50;68.50;;;;;;4987085;28;20699;-70
2022/07/09 04:13:16;;;;;;;2.05;1.15;;;23.50;67.50;;;;;;4987845;28;20375;-68
2022/07/09 04:15:45;;;;;;;2.03;0.43;;;23.60;66.70;;;;;;4987263;28;20109;-65
2022/07/09 04:18:17;;;;;;;2.65;0.50;;;23.10;66.70;;;;;;4988020;28;20026;-67
2022/07/09 04:20:44;;;;;;;0.85;0.50;;;22.20;67.70;;;;;;4986715;28;20035;-68
2022/07/09 04:23:11;;;;;;;1.77;0.50;;;21.30;69.90;;;;;;4987278;28;20026;-69
2022/07/09 04:25:39;;;;;;;0.52;0.47;;;20.70;71.00;;;;;;4986549;28;20080;-67
2022/07/09 04:28:06;;;;;;;1.48;0.50;;;20.10;72.30;;;;;;4986961;28;20101;-67
2022/07/09 04:30:34;;;;;;;2.40;0.80;;;19.70;73.10;;;;;;4986921;28;20023;-68
2022/07/09 04:33:01;;;;;;;3.65;2.28;;;19.50;74.50;;;;;;4987362;28;20538;-64
2022/07/09 04:35:29;;;;;;;3.60;1.55;;;19.30;74.90;;;;;;4987826;28;20035;-67
2022/07/09 04:37:56;;;;;;;1.10;0.95;;;19.10;76.10;;;;;;4987155;28;20426;-67
2022/07/09 04:40:23;;;;;;;4.05;1.00;;;19.00;76.60;;;;;;4987423;28;20499;-66
2022/07/09 04:42:50;;;;;;;6.38;3.45;;;18.90;78.10;;;;;;4986578;28;20073;-66
2022/07/09 04:45:18;;;;;;;3.75;1.92;;;18.80;79.40;;;;;;4987397;28;20068;-66
2022/07/09 04:47:45;;;;;;;2.60;0.80;;;18.60;80.20;;;;;;4986333;28;20068;-66
2022/07/09 04:50:12;;;;;;;4.57;0.90;;;18.40;81.20;;;;;;4986863;28;20157;-64
2022/07/09 04:52:40;;;;;;;4.00;1.27;;;18.20;81.10;;;;;;4986280;28;20068;-65
2022/07/09 04:55:10;;;;;;;2.80;1.00;;;18.00;81.90;;;;;;4986555;28;20026;-66
2022/07/09 04:57:37;;;;;;;3.22;0.93;;;17.80;82.70;;;;;;4985910;28;20030;-65
2022/07/09 05:00:05;;;;;;;2.78;0.90;;;17.70;82.90;;;;;;4986954;28;20507;-64
2022/07/09 05:02:32;;;;;;;2.90;1.17;;;17.50;83.80;;;;;;4987221;28;20376;-66
2022/07/09 05:05:00;;;;;;;2.63;0.98;;;17.40;84.10;;;;;;4986461;28;20031;-66
2022/07/09 05:07:27;;;;;;;3.83;1.30;;;17.20;84.80;;;;;;4987127;28;20026;-65
2022/07/09 05:09:54;;;;;;;3.53;1.00;;;17.10;85.20;;;;;;4985583;28;20073;-63
2022/07/09 05:12:22;;;;;;;2.80;0.90;;;16.90;85.70;;;;;;4986577;28;20022;-64
2022/07/09 05:14:49;;;;;;;2.65;0.98;;;16.90;87.70;;;;;;4986057;28;20022;-64
2022/07/09 05:17:16;;;;;;;1.98;0.90;;;16.80;87.10;;;;;;4986769;28;20022;-67
2022/07/09 05:19:44;;;;;;;2.40;0.88;;;16.80;86.70;;;;;;4985879;28;20034;-68
2022/07/09 05:22:11;;;;;;;2.40;0.93;;;16.60;87.80;;;;;;4985661;28;20030;-65
2022/07/09 05:24:38;;;;;;;4.55;0.85;;;16.70;88.20;;;;;;4986734;28;20053;-65
2022/07/09 05:27:06;;;;;;;3.08;1.27;;;16.50;88.20;;;;;;5017673;28;20030;-65
2022/07/09 05:29:33;;;;;;;5.15;2.20;;;16.50;89.00;;;;;;4986464;28;20046;-65
2022/07/09 05:32:00;;;;;;;3.72;1.90;;;16.40;89.40;;;;;;4985484;28;20038;-67
2022/07/09 05:34:28;;;;;;;6.07;2.30;;;16.40;89.70;;;;;;4986196;28;20033;-66
2022/07/09 05:36:55;;;;;;;4.20;1.42;;;16.30;89.70;;;;;;4985589;28;20483;-65
2022/07/09 05:39:23;;;;;;;4.20;1.52;;;16.30;90.10;;;;;;4985658;28;20050;-65
2022/07/09 05:41:51;;;;;;;4.97;1.90;;;16.30;90.20;;;;;;4985519;28;20097;-66
2022/07/09 05:44:18;;;;;;;7.85;2.85;;;16.20;90.10;;;;;;4985838;28;20053;-65
2022/07/09 05:46:45;;;;;;;7.90;2.78;;;16.10;90.00;;;;;;4985907;28;20034;-66
2022/07/09 05:49:13;;;;;;;4.43;2.05;;;16.10;90.10;;;;;;4985893;28;20105;-66
2022/07/09 05:51:40;;;;;;;6.00;2.97;;;16.00;90.00;;;;;;4986031;28;20444;-67
2022/07/09 05:54:08;;;;;;;10.00;3.42;;;16.00;90.20;;;;;;4985296;28;20406;-65
2022/07/09 05:56:36;;;;;;;7.05;3.35;;;15.90;90.40;;;;;;4985646;28;20045;-65
2022/07/09 05:59:04;;;;;;;6.28;3.13;;;15.90;90.50;;;;;;4984590;28;20053;-69
2022/07/09 06:01:32;;;;;;;7.50;4.32;;;15.80;90.40;;;;;;4985708;28;20026;-64
2022/07/09 06:03:59;;;;;;;7.32;5.38;;;15.70;90.50;;;;;;4984953;28;20160;-66
2022/07/09 06:06:26;;;;;;;9.43;5.38;;;15.70;90.70;;;;;;4985708;28;20030;-65
2022/07/09 06:08:53;;;;;;;8.98;5.30;;;15.60;90.30;;;;;;4984868;28;20022;-65
2022/07/09 06:11:21;;;;;;;6.13;3.90;;;15.60;90.40;;;;;;4985359;28;20209;-64
2022/07/09 06:13:48;;;;;;;5.65;3.53;;;15.60;90.40;;;;;;4984294;28;20045;-64
2022/07/09 06:16:15;;;;;;;5.20;2.95;;;15.60;90.50;;;;;;4985319;28;20557;-65
2022/07/09 06:18:43;;;;;;;4.75;2.60;;;15.60;90.50;;;;;;4985395;28;20023;-66
2022/07/09 06:21:10;;;;;;;7.03;1.73;;;15.50;90.50;;;;;;4984759;28;20035;-69
2022/07/09 06:23:39;;;;;;;4.53;1.85;;;15.40;90.40;;;;;;4985635;28;20022;-74
2022/07/09 06:26:06;;;;;;;4.60;2.20;;;15.40;90.70;;;;;;4984624;28;20041;-66
2022/07/09 06:28:35;;;;;;;6.05;2.75;;;15.30;91.00;;;;;;4985178;28;20030;-70
2022/07/09 06:31:03;;;;;;;3.90;2.47;;;15.20;91.20;;;;;;4984934;28;20383;-67
2022/07/09 06:33:30;;;;;;;12.40;5.70;;;15.20;91.60;;;;;;4985289;28;20018;-72
2022/07/09 06:35:57;;;;;;;10.15;5.35;;;15.20;91.60;;;;;;4984848;28;20029;-69
2022/07/09 06:38:27;;;;;;;8.93;7.45;;;15.10;91.70;;;;;;4984899;28;20023;-69
2022/07/09 06:40:58;;;;;;;8.68;6.88;;;15.00;91.80;;;;;;4984923;28;20114;-70
2022/07/09 06:43:25;;;;;;;11.65;6.88;;;14.90;91.90;;;;;;5016461;28;20029;-68
2022/07/09 06:45:53;;;;;;;5.18;3.30;;;14.80;92.00;;;;;;4984895;28;20027;-66
2022/07/09 06:48:20;;;;;;;5.65;2.55;;;14.80;92.10;;;;;;4985027;28;20029;-69
2022/07/09 06:50:48;;;;;;;4.82;2.38;;;14.70;92.40;;;;;;4985455;28;20062;-66
2022/07/09 06:53:15;;;;;;;3.95;2.03;;;14.70;92.60;;;;;;4983230;28;20026;-69
2022/07/09 06:55:43;;;;;;;5.13;2.00;;;14.50;92.60;;;;;;4984907;28;20046;-65
2022/07/09 06:58:10;;;;;;;5.28;3.20;;;14.50;93.20;;;;;;4984718;28;20717;-67
2022/07/09 07:00:37;;;;;;;8.88;6.13;;;14.40;93.40;;;;;;4985296;28;20125;-64
2022/07/09 07:03:05;;;;;;;9.02;5.25;;;14.30;93.50;;;;;;4984753;28;20022;-70
2022/07/09 07:05:32;;;;;;;8.98;5.45;;;14.20;93.90;;;;;;4984821;28;20023;-63
2022/07/09 07:08:00;;;;;;;8.48;5.05;;;14.10;94.50;;;;;;4984289;28;20027;-64
2022/07/09 07:10:27;;;;;;;10.13;5.95;;;14.00;94.60;;;;;;4984975;28;20545;-66
2022/07/09 07:12:55;;;;;;;9.82;5.53;;;13.90;94.80;;;;;;4984824;28;20030;-66
2022/07/09 07:15:23;;;;;;;9.15;6.82;;;13.90;94.90;;;;;;4984462;28;20026;-65
2022/07/09 07:17:50;;;;;;;9.52;5.85;;;13.70;94.80;;;;;;4985204;28;20550;-64
2022/07/09 07:20:22;;;;;;;7.60;4.65;;;13.70;95.10;;;;;;4985187;28;20104;-74
2022/07/09 07:22:50;;;;;;;8.52;5.07;;;13.60;95.00;;;;;;4988660;28;20105;-64
2022/07/09 07:25:17;;;;;;;10.30;6.40;;;13.50;94.80;;;;;;4988053;28;20034;-64
2022/07/09 07:27:44;;;;;;;7.30;5.07;;;13.50;94.90;;;;;;4988556;28;20106;-65
2022/07/09 07:30:12;;;;;;;7.10;4.90;;;13.40;95.10;;;;;;4987945;28;20038;-65
2022/07/09 07:32:40;;;;;;;6.05;3.78;;;13.40;95.40;;;;;;4988654;28;20156;-64
2022/07/09 07:35:07;;;;;;;6.05;3.90;;;13.40;95.90;;;;;;4987684;28;20053;-65
2022/07/09 07:37:34;;;;;;;7.28;5.70;;;13.30;95.90;;;;;;4987873;28;20019;-66
2022/07/09 07:40:02;;;;;;;6.13;4.60;;;13.20;95.40;;;;;;4988445;28;20097;-65
2022/07/09 07:42:29;;;;;;;8.50;4.30;;;13.20;95.70;;;;;;4987988;28;20037;-65
2022/07/09 07:44:56;;;;;;;8.57;4.10;;;13.20;96.40;;;;;;4988649;28;20038;-65
2022/07/09 07:47:24;;;;;;;6.47;3.75;;;13.10;96.60;;;;;;4986911;28;20023;-64
2022/07/09 07:49:51;;;;;;;7.53;4.30;;;13.10;97.30;;;;;;4987449;28;20157;-64
2022/07/09 07:52:19;;;;;;;8.48;4.55;;;13.00;97.20;;;;;;4987337;28;20018;-65
2022/07/09 07:54:46;;;;;;;6.40;4.65;;;12.90;97.40;;;;;;4987915;28;20547;-66
2022/07/09 07:57:13;;;;;;;7.10;3.88;;;12.80;97.60;;;;;;4987576;28;20046;-65
2022/07/09 07:59:40;;;;;;;5.47;3.40;;;12.80;97.80;;;;;;4987285;28;20046;-65
2022/07/09 08:02:08;;;;;;;7.80;3.22;;;12.70;97.90;;;;;;4987779;28;20476;-64
2022/07/09 08:04:35;;;;;;;4.95;3.35;;;12.60;98.20;;;;;;4987720;28;20052;-65
2022/07/09 08:07:02;;;;;;;6.40;3.25;;;12.60;98.60;;;;;;4988232;28;20018;-65
2022/07/09 08:09:30;;;;;;;6.97;4.30;;;12.60;98.80;;;;;;4987241;28;20038;-64
2022/07/09 08:11:57;;;;;;;5.50;3.80;;;12.40;99.40;;;;;;4987748;28;20026;-69
2022/07/09 08:14:24;;;;;;;6.03;4.10;;;12.40;99.80;;;;;;4987144;28;20050;-66
2022/07/09 08:16:53;;;;;;;6.35;4.10;;;12.30;99.90;;;;;;4988181;28;20025;-67
2022/07/09 08:19:20;;;;;;;9.50;5.47;;;12.30;99.90;;;;;;4987434;28;20018;-65
2022/07/09 08:21:47;;;;;;;8.48;5.63;;;12.30;99.90;;;;;;4987135;28;20037;-66
2022/07/09 08:24:15;;;;;;;6.63;4.07;;;12.20;99.90;;;;;;4987097;28;20523;-69
2022/07/09 08:26:42;;;;;;;8.80;4.93;;;12.20;99.90;;;;;;4986977;28;20426;-75
2022/07/09 08:29:09;;;;;;;8.25;4.82;;;12.00;99.90;;;;;;4987834;28;20748;-64
2022/07/09 08:31:36;;;;;;;6.85;4.72;;;12.00;99.90;;;;;;4985712;28;20022;-65
2022/07/09 08:34:04;;;;;;;8.95;5.18;;;11.90;99.90;;;;;;4987899;28;20050;-71
2022/07/09 08:36:31;;;;;;;6.05;4.25;;;11.90;99.90;;;;;;4986866;28;20435;-68
2022/07/09 08:38:58;;;;;;;9.43;5.28;;;11.90;99.90;;;;;;4987459;28;20679;-76
2022/07/09 08:41:26;;;;;;;10.02;6.20;;;11.80;99.90;;;;;;4986963;28;20026;-63
2022/07/09 08:43:56;;;;;;;10.75;7.20;;;11.80;99.90;;;;;;4987351;28;20114;-70
2022/07/09 08:46:24;;;;;;;13.10;7.55;;;11.70;99.90;;;;;;4987175;28;20054;-69
2022/07/09 08:48:53;;;;;;;10.23;7.40;;;11.70;99.90;;;;;;5018484;28;20026;-65
2022/07/09 08:51:21;;;;;;;12.90;9.57;;;11.60;99.90;;;;;;4987093;28;20049;-65
2022/07/09 08:53:49;;;;;;;20.15;12.63;;;11.60;99.90;;;;;;5018217;28;20022;-70
2022/07/09 08:56:16;;;;;;;20.75;15.05;;;11.60;99.90;;;;;;4986978;28;20098;-68
2022/07/09 08:58:43;;;;;;;21.60;17.05;;;11.50;99.90;;;;;;4986370;28;20018;-67
2022/07/09 09:01:17;;;;;;;27.73;22.58;;;11.50;99.90;;;;;;4987576;28;20074;-65
2022/07/09 09:03:45;;;;;;;25.23;21.60;;;11.50;99.90;;;;;;4986370;28;20102;-66
2022/07/09 09:06:14;;;;;;;19.38;13.70;;;11.50;99.90;;;;;;4986822;28;20030;-65
2022/07/09 09:08:45;;;;;;;22.98;16.05;;;11.50;99.90;;;;;;4986566;28;20085;-66
2022/07/09 09:11:22;;;;;;;21.27;15.95;;;11.50;99.90;;;;;;4985326;28;20442;-66
2022/07/09 09:13:50;;;;;;;19.67;14.38;;;11.50;99.90;;;;;;4985862;28;20100;-63
2022/07/09 09:16:19;;;;;;;13.18;9.82;;;11.50;99.90;;;;;;4986640;28;20383;-64
2022/07/09 09:18:51;;;;;;;13.55;9.10;;;11.40;99.90;;;;;;4986237;28;20501;-67
2022/07/09 09:21:22;;;;;;;13.13;9.57;;;11.40;99.90;;;;;;4986658;28;20037;-66
2022/07/09 09:23:55;;;;;;;12.00;8.60;;;11.40;99.90;;;;;;4987776;28;20041;-65
2022/07/09 09:26:24;;;;;;;11.65;7.60;;;11.40;99.90;;;;;;4986134;28;20030;-64
2022/07/09 09:28:53;;;;;;;10.05;7.63;;;11.30;99.90;;;;;;4985823;28;20054;-66
2022/07/09 09:31:29;;;;;;;8.27;6.75;;;11.30;99.90;;;;;;4986283;28;20026;-64
2022/07/09 09:34:07;;;;;;;12.25;7.07;;;11.20;99.90;;;;;;4986069;28;20034;-65
2022/07/09 09:36:36;;;;;;;9.88;7.13;;;11.20;99.90;;;;;;4986259;28;20022;-65
2022/07/09 09:39:22;;;;;;;10.93;7.78;;;11.20;99.90;;;;;;4986441;28;20019;-64
2022/07/09 09:42:03;;;;;;;13.25;7.85;;;11.20;99.90;;;;;;4985775;28;20030;-65
2022/07/09 09:44:42;;;;;;;14.20;8.63;;;11.20;99.90;;;;;;4985832;28;20029;-67
2022/07/09 09:47:11;;;;;;;12.57;8.35;;;11.10;99.90;;;;;;4986192;28;20026;-66
2022/07/09 09:49:41;;;;;;;12.95;8.75;;;11.10;99.90;;;;;;4986073;28;20809;-65
2022/07/09 09:52:12;;;;;;;13.65;9.40;;;11.10;99.90;;;;;;4986078;28;20021;-66
2022/07/09 09:54:42;;;;;;;15.35;9.82;;;11.10;99.90;;;;;;5015681;28;20634;-64
2022/07/09 09:57:13;;;;;;;11.75;8.82;;;11.00;99.90;;;;;;4986182;28;20069;-71
2022/07/09 09:59:42;;;;;;;15.85;10.80;;;11.00;99.90;;;;;;4983936;28;20026;-64
2022/07/09 10:02:11;;;;;;;14.10;10.50;;;11.00;99.90;;;;;;4986249;28;20550;-64
2022/07/09 10:04:43;;;;;;;17.63;10.70;;;11.00;99.90;;;;;;4985740;28;20026;-64
2022/07/09 10:07:14;;;;;;;14.75;11.30;;;11.00;99.90;;;;;;4986033;28;20360;-66
2022/07/09 10:09:41;;;;;;;15.30;10.05;;;11.00;99.90;;;;;;5016746;28;20045;-64
2022/07/09 10:12:09;;;;;;;14.25;10.23;;;10.90;99.90;;;;;;4984239;28;20058;-69
2022/07/09 10:14:39;;;;;;;14.68;11.00;;;10.90;99.90;;;;;;4985430;28;20494;-66
2022/07/09 10:17:15;;;;;;;16.88;10.07;;;10.80;99.90;;;;;;4985801;28;20058;-66
2022/07/09 10:20:05;;;;;;;14.98;9.93;;;10.90;99.90;;;;;;4984986;28;20041;-64
2022/07/09 10:22:40;;;;;;;13.25;9.75;;;10.90;99.90;;;;;;4985152;28;20081;-69
2022/07/09 10:25:09;;;;;;;11.88;9.07;;;10.80;99.90;;;;;;5016801;28;20030;-71
2022/07/09 10:27:48;;;;;;;16.70;8.88;;;10.80;99.90;;;;;;4985541;28;20091;-71
2022/07/09 10:30:30;;;;;;;14.05;8.95;;;10.80;99.90;;;;;;4985554;28;20379;-69
2022/07/09 10:33:05;;;;;;;11.30;8.53;;;10.80;99.90;;;;;;4984727;28;20027;-69
2022/07/09 10:35:40;;;;;;;14.80;9.32;;;10.80;99.90;;;;;;4985023;28;20399;-73
2022/07/09 10:38:08;;;;;;;13.25;10.52;;;10.70;99.90;;;;;;4983763;28;20030;-68
2022/07/09 10:40:44;;;;;;;15.80;9.30;;;10.80;99.90;;;;;;4984888;28;20058;-67
2022/07/09 10:43:12;;;;;;;14.38;9.82;;;10.80;99.90;;;;;;4985525;28;20033;-69
2022/07/09 10:45:45;;;;;;;15.63;9.77;;;10.70;99.90;;;;;;4985300;28;20018;-67
2022/07/09 10:48:16;;;;;;;14.70;9.65;;;10.60;99.90;;;;;;4985239;28;20022;-69
2022/07/09 10:50:49;;;;;;;12.75;8.38;;;10.70;99.90;;;;;;5016327;28;20042;-70
2022/07/09 10:53:17;;;;;;;10.80;8.35;;;10.70;99.90;;;;;;4985487;28;20023;-68
2022/07/09 10:55:45;;;;;;;11.52;7.80;;;10.60;99.90;;;;;;4986700;28;20046;-68
2022/07/09 10:58:20;;;;;;;12.50;9.30;;;10.70;99.90;;;;;;4988810;28;20030;-68
2022/07/09 11:00:59;;;;;;;10.30;7.50;;;10.70;99.90;;;;;;4988269;28;20039;-69
2022/07/09 11:03:31;;;;;;;10.02;7.43;;;10.70;99.90;;;;;;4989288;28;20027;-69
2022/07/09 11:05:59;;;;;;;9.13;6.60;;;10.70;99.90;;;;;;4988511;28;20490;-73
2022/07/09 11:08:26;;;;;;;9.38;6.93;;;10.60;99.90;;;;;;4989174;28;20322;-72
2022/07/09 11:10:53;;;;;;;9.23;6.63;;;10.70;99.90;;;;;;4988103;28;20081;-68
2022/07/09 11:13:25;;;;;;;7.10;5.70;;;10.60;99.90;;;;;;4989118;28;20025;-71
2022/07/09 11:16:00;;;;;;;7.97;5.78;;;10.60;99.90;;;;;;4988291;28;20022;-70
2022/07/09 11:18:29;;;;;;;9.32;5.75;;;10.60;99.90;;;;;;4988783;28;20097;-71
2022/07/09 11:20:56;;;;;;;7.63;6.35;;;10.50;99.90;;;;;;4987778;28;20713;-70
2022/07/09 11:23:24;;;;;;;7.43;5.07;;;10.60;99.90;;;;;;4988799;28;20026;-69
2022/07/09 11:25:51;;;;;;;8.32;5.03;;;10.50;99.90;;;;;;4987080;28;20037;-69
2022/07/09 11:28:28;;;;;;;7.05;5.03;;;10.50;99.90;;;;;;4988539;28;20022;-69
2022/07/09 11:31:00;;;;;;;8.65;5.72;;;10.50;99.90;;;;;;4987671;28;20030;-68
2022/07/09 11:33:28;;;;;;;7.28;5.18;;;10.40;99.90;;;;;;4988766;28;20031;-68
2022/07/09 11:35:55;;;;;;;7.97;5.13;;;10.40;99.90;;;;;;4987901;28;20026;-72
2022/07/09 11:38:22;;;;;;;7.93;5.25;;;10.40;99.90;;;;;;4988831;28;20026;-69
2022/07/09 11:41:01;;;;;;;6.63;5.03;;;10.30;99.90;;;;;;4988019;28;20042;-72
2022/07/09 11:43:28;;;;;;;8.73;5.00;;;10.40;99.90;;;;;;4988058;28;20023;-74
2022/07/09 11:45:55;;;;;;;7.47;5.53;;;10.30;99.90;;;;;;4987791;28;20060;-68
2022/07/09 11:48:22;;;;;;;6.35;4.70;;;10.30;99.90;;;;;;4988325;28;20501;-69
2022/07/09 11:50:50;;;;;;;6.50;4.63;;;10.30;99.90;;;;;;4987955;28;20058;-68
2022/07/09 11:53:21;;;;;;;6.28;4.18;;;10.30;99.90;;;;;;4987946;28;20018;-68
2022/07/09 11:55:59;;;;;;;6.68;3.70;;;10.20;99.90;;;;;;4987896;28;20053;-67
2022/07/09 11:58:27;;;;;;;6.25;3.80;;;10.20;99.90;;;;;;4988319;28;20018;-70
2022/07/09 12:00:55;;;;;;;6.15;4.55;;;10.20;99.90;;;;;;4987707;28;20035;-67
2022/07/09 12:03:30;;;;;;;7.30;4.30;;;10.20;99.90;;;;;;4987885;28;20739;-68
2022/07/09 12:05:57;;;;;;;5.25;3.70;;;10.20;99.90;;;;;;4987702;28;20050;-68
2022/07/09 12:08:32;;;;;;;6.68;4.05;;;10.20;99.90;;;;;;4988131;28;20391;-67
2022/07/09 12:11:00;;;;;;;3.92;3.10;;;10.10;99.90;;;;;;4987463;28;20098;-67
2022/07/09 12:13:28;;;;;;;5.70;3.20;;;10.20;99.90;;;;;;4988111;28;20049;-71
2022/07/09 12:15:56;;;;;;;6.20;3.40;;;10.10;99.90;;;;;;4987823;28;20503;-69
2022/07/09 12:18:23;;;;;;;7.38;3.58;;;10.10;99.90;;;;;;4987332;28;20026;-68
2022/07/09 12:20:51;;;;;;;5.05;3.20;;;10.10;99.90;;;;;;4987316;28;20724;-69
2022/07/09 12:23:18;;;;;;;7.13;3.50;;;10.10;99.90;;;;;;4987838;28;20026;-68
2022/07/09 12:25:45;;;;;;;4.97;3.40;;;10.00;99.90;;;;;;4987533;28;20033;-68
2022/07/09 12:28:13;;;;;;;5.90;3.13;;;10.00;99.90;;;;;;4986805;28;20419;-68
2022/07/09 12:30:40;;;;;;;4.47;3.10;;;10.10;99.90;;;;;;4987055;28;20568;-69
2022/07/09 12:33:08;;;;;;;7.70;3.47;;;10.00;99.90;;;;;;4986438;28;20432;-69
2022/07/09 12:35:35;;;;;;;6.75;3.60;;;10.00;99.90;;;;;;4987751;28;20022;-68
2022/07/09 12:38:02;;;;;;;4.35;3.25;;;10.00;99.90;;;;;;4987133;28;20033;-68
2022/07/09 12:40:30;;;;;;;5.05;3.63;;;10.00;99.90;;;;;;4987134;28;20034;-68
2022/07/09 12:42:57;;;;;;;4.72;3.40;;;9.90;99.90;;;;;;4987570;28;20037;-66
2022/07/09 12:45:24;;;;;;;4.68;3.53;;;10.00;99.90;;;;;;4986210;28;20030;-65
2022/07/09 12:47:52;;;;;;;6.53;3.63;;;10.00;99.90;;;;;;4987526;28;20130;-68
2022/07/09 12:50:19;;;;;;;5.82;3.80;;;10.00;99.90;;;;;;4986603;28;20541;-68
2022/07/09 12:52:46;;;;;;;5.18;3.40;;;9.90;99.90;;;;;;4987454;28;20022;-66